Time;durP1;ratioP1;P1;durP2;ratioP2;P2;SDS_P1;SDS_P2;PMS_P1;PMS_P2;Temp;Humidity;BMP_temperature;BMP_pressure;BME280_temperature;BME280_humidity;BME280_pressure;Samples;Min_cycle;Max_cycle;Signal;HPM_P1;HPM_P2
2022/06/21 00:02:25;;;;;;;11.10;6.47;;;;;;;21.92;84.71;99059.69;4366606;32;35308;-81
2022/06/21 00:05:18;;;;;;;9.43;6.00;;;;;;;21.64;87.19;99076.47;4365023;32;34533;-81
2022/06/21 00:08:16;;;;;;;7.87;5.50;;;;;;;21.55;88.00;99060.12;4357577;32;34123;-81
2022/06/21 00:11:04;;;;;;;9.30;5.80;;;;;;;21.50;89.12;99063.31;4360404;32;34841;-80
2022/06/21 00:13:50;;;;;;;14.00;5.70;;;;;;;22.01;86.24;99054.47;4360645;32;35195;-80
2022/06/21 00:16:36;;;;;;;10.13;5.78;;;;;;;21.50;88.48;99074.47;4361097;32;35725;-80
2022/06/21 00:19:24;;;;;;;11.05;5.90;;;;;;;21.13;92.24;99078.37;4347623;32;34167;-79
2022/06/21 00:22:16;;;;;;;8.73;5.65;;;;;;;20.93;94.27;99080.75;4359775;32;34796;-81
2022/06/21 00:25:08;;;;;;;10.80;6.30;;;;;;;20.98;95.02;99083.12;4359340;32;35125;-80
2022/06/21 00:27:55;;;;;;;9.73;5.57;;;;;;;21.07;94.39;99088.31;4359523;32;34943;-80
2022/06/21 00:30:42;;;;;;;10.57;5.68;;;;;;;21.01;95.70;99110.19;4366324;32;34645;-81
2022/06/21 00:33:30;;;;;;;8.13;5.57;;;;;;;20.70;99.47;99105.34;4365351;32;35343;-79
2022/06/21 00:36:29;;;;;;;7.97;5.68;;;;;;;20.50;100.00;99102.84;4364631;32;34566;-80
2022/06/21 00:39:17;;;;;;;10.02;6.05;;;;;;;20.61;100.00;99108.47;4358591;32;34945;-79
2022/06/21 00:42:24;;;;;;;8.67;5.73;;;;;;;20.47;100.00;99114.75;4359288;32;35503;-80
2022/06/21 00:45:40;;;;;;;10.77;5.12;;;;;;;20.58;100.00;99112.06;4361439;32;33161;-80
2022/06/21 00:48:27;;;;;;;7.93;5.97;;;;;;;20.58;97.19;99107.28;4367254;32;34336;-79
2022/06/21 00:51:30;;;;;;;7.87;4.80;;;;;;;20.76;95.42;99100.97;4350397;32;34269;-80
2022/06/21 00:54:21;;;;;;;7.80;4.65;;;;;;;20.63;93.94;99095.78;4363456;32;34559;-81
2022/06/21 00:57:14;;;;;;;6.57;3.80;;;;;;;20.80;91.02;99099.00;4358439;32;34818;-79
2022/06/21 01:00:39;;;;;;;8.55;4.28;;;;;;;;;;4361515;32;35476;-80
2022/06/21 01:03:29;;;;;;;9.95;4.03;;;;;;;20.70;90.83;99099.75;4302843;33;35219;-79
2022/06/21 01:06:24;;;;;;;6.55;4.25;;;;;;;20.73;90.64;99093.41;4318443;33;34536;-80
2022/06/21 01:09:27;;;;;;;12.15;4.20;;;;;;;20.70;91.03;99080.28;4355044;32;34104;-81
2022/06/21 01:12:20;;;;;;;7.95;4.20;;;;;;;20.97;89.03;99064.03;4366590;32;34679;-80
2022/06/21 01:15:13;;;;;;;9.70;4.30;;;;;;;20.70;90.72;99072.72;4367145;32;35968;-79
2022/06/21 01:18:02;;;;;;;6.68;3.67;;;;;;;20.36;92.30;99077.72;4360290;32;34616;-80
2022/06/21 01:20:54;;;;;;;8.38;4.18;;;;;;;20.26;92.87;99089.59;4359654;32;34199;-79
2022/06/21 01:23:57;;;;;;;10.23;3.72;;;;;;;20.24;91.65;99083.62;4361391;32;35172;-80
2022/06/21 01:27:00;;;;;;;8.70;3.80;;;;;;;20.00;90.83;99100.56;4358557;32;34494;-79
2022/06/21 01:29:47;;;;;;;6.80;3.62;;;;;;;20.00;90.08;99092.22;4361992;32;34594;-78
2022/06/21 01:32:34;;;;;;;9.63;4.00;;;;;;;20.02;89.04;99107.75;4363515;32;34107;-80
2022/06/21 01:35:46;;;;;;;6.65;3.87;;;;;;;20.08;87.89;99117.31;4367996;32;35621;-80
2022/06/21 01:38:38;;;;;;;6.07;3.50;;;;;;;20.35;85.78;99137.31;4366193;32;36055;-80
2022/06/21 01:41:31;;;;;;;8.25;3.78;;;;;;;20.36;85.17;99125.03;4360230;32;34603;-80
2022/06/21 01:44:25;;;;;;;5.65;3.37;;;;;;;20.15;84.33;99134.84;4356285;32;34218;-79
2022/06/21 01:47:14;;;;;;;7.10;4.30;;;;;;;20.16;84.35;99110.59;4361120;32;34401;-79
2022/06/21 01:50:04;;;;;;;8.20;3.87;;;;;;;20.04;84.82;99125.63;4357550;32;35553;-81
2022/06/21 01:52:52;;;;;;;6.78;3.70;;;;;;;20.13;83.24;99134.44;4360848;32;34461;-80
2022/06/21 01:55:47;;;;;;;7.90;3.85;;;;;;;19.88;84.61;99123.13;4348090;32;33192;-79
2022/06/21 01:58:36;;;;;;;6.50;3.83;;;;;;;19.70;85.05;99124.97;4365525;32;34726;-79
2022/06/21 02:01:28;;;;;;;7.72;4.75;;;;;;;19.67;85.55;99137.66;4358418;32;34808;-78
2022/06/21 02:04:18;;;;;;;8.15;4.62;;;;;;;19.51;86.37;99151.78;4358492;32;34634;-79
2022/06/21 02:07:08;;;;;;;8.80;4.80;;;;;;;19.57;86.46;99148.66;4357992;32;34211;-79
2022/06/21 02:10:07;;;;;;;9.68;5.15;;;;;;;19.68;86.47;99142.03;4367842;32;34480;-80
2022/06/21 02:13:00;;;;;;;11.12;5.25;;;;;;;19.79;85.78;99146.87;4359960;32;35635;-80
2022/06/21 02:15:54;;;;;;;9.00;5.30;;;;;;;19.62;86.71;99146.31;4359807;32;34598;-80
2022/06/21 02:18:44;;;;;;;8.02;5.28;;;;;;;19.65;86.57;99148.34;4358310;32;33702;-81
2022/06/21 02:21:38;;;;;;;7.90;4.65;;;;;;;19.47;87.43;99156.50;4358345;32;35419;-79
2022/06/21 02:24:28;;;;;;;10.18;5.37;;;;;;;19.55;86.93;99149.03;4358047;32;35573;-79
2022/06/21 02:27:16;;;;;;;10.27;5.70;;;;;;;19.08;89.95;99164.44;4369093;32;35489;-79
2022/06/21 02:30:07;;;;;;;9.35;5.62;;;;;;;19.22;90.21;99155.47;4368362;32;34225;-79
2022/06/21 02:32:55;;;;;;;8.23;4.90;;;;;;;19.42;89.04;99150.50;4356363;32;34606;-79
2022/06/21 02:35:50;;;;;;;9.35;4.97;;;;;;;19.36;88.49;99150.06;4362294;32;35660;-79
2022/06/21 02:38:40;;;;;;;7.90;4.45;;;;;;;19.61;87.35;99144.72;4357546;32;34331;-79
2022/06/21 02:41:32;;;;;;;8.25;4.75;;;;;;;19.54;84.13;99136.31;4350707;32;34025;-78
2022/06/21 02:44:23;;;;;;;8.32;4.55;;;;;;;19.40;83.10;99136.19;4358933;32;34561;-79
2022/06/21 02:47:19;;;;;;;8.20;3.80;;;;;;;19.21;82.74;99135.22;4364243;32;34515;-79
2022/06/21 02:50:36;;;;;;;7.57;3.85;;;;;;;19.22;81.75;99141.56;4364651;32;35605;-80
2022/06/21 02:53:48;;;;;;;6.22;3.87;;;;;;;19.15;80.20;99141.50;4366437;32;34459;-80
2022/06/21 02:56:44;;;;;;;6.80;3.83;;;;;;;19.32;78.49;99155.56;4363002;32;34631;-79
2022/06/21 02:59:33;;;;;;;5.80;3.85;;;;;;;18.96;80.43;99156.38;4362800;32;34911;-80
2022/06/21 03:02:24;;;;;;;8.68;4.40;;;;;;;18.66;81.77;99157.94;4368426;32;35630;-78
2022/06/21 03:05:16;;;;;;;7.25;4.07;;;;;;;18.39;83.37;99173.06;4361421;32;34641;-79
2022/06/21 03:08:04;;;;;;;5.70;3.87;;;;;;;18.59;82.34;99184.81;4358476;32;34659;-77
2022/06/21 03:10:51;;;;;;;7.50;4.40;;;;;;;18.26;84.56;99191.88;4367460;32;34928;-79
2022/06/21 03:13:38;;;;;;;11.38;4.60;;;;;;;18.38;84.65;99208.28;4360945;32;34066;-80
2022/06/21 03:16:24;;;;;;;9.80;4.28;;;;;;;18.47;84.25;99187.81;4371454;32;35244;-78
2022/06/21 03:19:21;;;;;;;8.88;4.97;;;;;;;18.51;84.37;99206.09;4358512;32;34544;-78
2022/06/21 03:22:16;;;;;;;6.05;4.28;;;;;;;18.20;86.42;99204.47;4357557;32;35007;-79
2022/06/21 03:25:05;;;;;;;7.75;4.87;;;;;;;18.13;86.73;99218.19;4369928;32;35522;-78
2022/06/21 03:27:57;;;;;;;7.80;4.40;;;;;;;18.08;87.38;99218.53;4367647;32;34176;-79
2022/06/21 03:30:43;;;;;;;9.20;4.70;;;;;;;17.98;87.78;99220.75;4358939;32;36212;-78
2022/06/21 03:33:31;;;;;;;7.65;4.32;;;;;;;18.02;86.54;99222.78;4360958;32;35558;-78
2022/06/21 03:36:19;;;;;;;8.65;4.47;;;;;;;17.75;87.46;99228.22;4359351;32;34253;-78
2022/06/21 03:39:13;;;;;;;8.30;4.10;;;;;;;17.84;86.60;99245.44;4368790;32;34816;-79
2022/06/21 03:41:59;;;;;;;9.02;4.10;;;;;;;17.80;86.03;99249.34;4358338;32;34976;-80
2022/06/21 03:44:54;;;;;;;6.80;3.90;;;;;;;17.74;84.54;99248.81;4366432;32;34555;-78
2022/06/21 03:47:45;;;;;;;6.62;3.72;;;;;;;17.69;84.93;99262.97;4348344;32;34695;-78
2022/06/21 03:50:40;;;;;;;5.40;3.05;;;;;;;17.83;83.00;99251.38;4362821;32;34734;-78
2022/06/21 03:53:32;;;;;;;5.10;2.80;;;;;;;17.63;81.06;99268.00;4360087;32;34556;-79
2022/06/21 03:56:32;;;;;;;3.53;2.10;;;;;;;17.93;79.12;99256.28;4361359;32;35979;-79
2022/06/21 03:59:43;;;;;;;4.05;2.03;;;;;;;17.78;74.86;99266.31;4366553;32;34101;-80
2022/06/21 04:02:35;;;;;;;3.30;1.80;;;;;;;17.70;73.52;99264.56;4363408;32;34847;-80
2022/06/21 04:05:31;;;;;;;5.87;2.03;;;;;;;17.91;72.39;99264.97;4369624;32;35665;-78
2022/06/21 04:08:24;;;;;;;3.83;1.80;;;;;;;17.71;72.85;99264.19;4360199;32;35676;-80
2022/06/21 04:11:25;;;;;;;3.62;2.00;;;;;;;17.90;71.97;99260.63;4370679;32;35293;-79
2022/06/21 04:14:18;;;;;;;5.90;2.10;;;;;;;17.57;72.65;99269.47;4367921;32;35025;-79
2022/06/21 04:17:31;;;;;;;2.70;1.77;;;;;;;17.52;71.85;99267.78;4360216;32;34562;-79
2022/06/21 04:20:29;;;;;;;3.97;1.45;;;;;;;17.42;72.46;99265.62;4365925;32;35878;-79
2022/06/21 04:23:24;;;;;;;3.80;1.70;;;;;;;17.72;69.82;99279.66;4360460;32;35133;-79
2022/06/21 04:26:23;;;;;;;3.45;1.55;;;;;;;17.52;68.26;99276.09;4359137;32;33684;-79
2022/06/21 04:29:16;;;;;;;3.03;1.50;;;;;;;17.40;65.32;99267.97;4365701;32;34632;-79
2022/06/21 04:32:13;;;;;;;5.10;1.23;;;;;;;17.49;63.98;99271.28;4362132;32;33998;-78
2022/06/21 04:35:07;;;;;;;2.50;1.40;;;;;;;17.55;62.79;99274.56;4369417;32;34101;-78
2022/06/21 04:38:04;;;;;;;2.53;1.25;;;;;;;17.37;62.41;99274.22;4359100;32;34400;-78
2022/06/21 04:41:06;;;;;;;2.62;1.30;;;;;;;17.31;61.64;99295.09;4335357;33;34578;-78
2022/06/21 04:44:05;;;;;;;2.70;1.15;;;;;;;17.31;62.42;99295.09;4335906;33;36006;-78
2022/06/21 04:47:16;;;;;;;3.05;1.27;;;;;;;17.54;61.45;99301.47;4335403;33;34775;-78
2022/06/21 04:50:03;;;;;;;1.55;1.17;;;;;;;17.34;61.25;99290.78;4341635;33;34316;-79
2022/06/21 04:53:18;;;;;;;2.35;1.12;;;;;;;17.70;59.75;99304.16;4341795;33;34744;-79
2022/06/21 04:56:23;;;;;;;2.33;1.23;;;;;;;17.37;61.18;99288.06;4337270;33;35019;-80
2022/06/21 04:59:52;;;;;;;3.75;1.20;;;;;;;17.31;61.05;99281.22;4336013;33;34510;-78
2022/06/21 05:02:54;;;;;;;3.55;1.20;;;;;;;17.72;60.36;99287.16;4332811;33;34163;-78
2022/06/21 05:05:40;;;;;;;5.95;1.35;;;;;;;17.90;60.22;99279.19;4335313;33;34325;-79
2022/06/21 05:08:27;;;;;;;3.50;1.83;;;;;;;17.58;61.19;99295.19;4335664;33;34947;-79
2022/06/21 05:11:14;;;;;;;6.65;2.37;;;;;;;17.70;60.89;99303.34;4338828;33;34165;-79
2022/06/21 05:14:01;;;;;;;3.05;1.10;;;;;;;17.74;60.61;99307.78;4335547;33;34046;-78
2022/06/21 05:16:50;;;;;;;5.25;1.12;;;;;;;17.50;61.83;99306.16;4334395;33;35615;-79
2022/06/21 05:19:41;;;;;;;3.95;1.12;;;;;;;17.41;60.83;99302.78;4329859;33;35003;-78
2022/06/21 05:22:35;;;;;;;1.67;0.90;;;;;;;17.97;59.86;99315.37;4336591;33;35502;-78
2022/06/21 05:25:26;;;;;;;3.37;1.15;;;;;;;17.68;60.86;99306.50;4337070;33;34112;-79
2022/06/21 05:28:39;;;;;;;2.47;1.10;;;;;;;17.66;60.55;99321.88;4336131;33;36185;-80
2022/06/21 05:31:28;;;;;;;3.72;1.30;;;;;;;17.88;58.46;99323.91;4327692;33;34579;-80
2022/06/21 05:34:32;;;;;;;2.40;1.20;;;;;;;18.16;58.17;99315.31;4337001;33;34643;-79
2022/06/21 05:37:30;;;;;;;3.67;1.08;;;;;;;17.95;57.23;99332.34;4333964;33;34219;-79
2022/06/21 05:40:31;;;;;;;1.83;1.10;;;;;;;18.13;57.20;99313.28;4347631;32;34602;-78
2022/06/21 05:43:33;;;;;;;6.15;1.25;;;;;;;18.35;56.42;99327.50;4351430;32;34973;-78
2022/06/21 05:46:22;;;;;;;2.15;1.20;;;;;;;18.33;55.05;99329.87;4338178;32;34312;-78
2022/06/21 05:49:17;;;;;;;3.05;1.52;;;;;;;17.94;56.27;99327.19;4349908;32;34337;-79
2022/06/21 05:52:07;;;;;;;12.98;3.10;;;;;;;17.76;54.78;99335.16;4346392;32;34371;-79
2022/06/21 05:54:59;;;;;;;3.20;1.08;;;;;;;18.03;53.65;99327.75;4341414;32;35979;-78
2022/06/21 05:57:52;;;;;;;1.67;0.82;;;;;;;18.16;54.30;99336.72;4349316;32;35217;-79
2022/06/21 06:01:00;;;;;;;5.93;0.90;;;;;;;17.97;54.23;99341.09;4346580;32;34695;-79
2022/06/21 06:03:56;;;;;;;3.87;1.10;;;;;;;18.11;55.76;99337.81;4352713;32;35611;-78
2022/06/21 06:06:44;;;;;;;2.12;0.82;;;;;;;18.04;55.01;99354.28;4350602;32;34932;-78
2022/06/21 06:09:38;;;;;;;1.73;0.73;;;;;;;18.03;54.46;99354.69;4348717;32;35497;-78
2022/06/21 06:12:34;;;;;;;1.70;1.00;;;;;;;18.04;54.53;99359.03;4349631;32;34052;-78
2022/06/21 06:15:26;;;;;;;3.35;0.77;;;;;;;18.12;53.19;99361.56;4347648;32;35493;-78
2022/06/21 06:18:40;;;;;;;1.50;0.90;;;;;;;18.26;51.58;99351.91;4347294;32;34956;-80
2022/06/21 06:22:05;;;;;;;3.10;0.80;;;;;;;18.20;47.70;99351.41;4351416;32;35535;-79
2022/06/21 06:25:18;;;;;;;2.72;0.80;;;;;;;18.27;50.45;99359.88;4338011;32;34195;-77
2022/06/21 06:28:36;;;;;;;3.17;0.80;;;;;;;18.28;48.56;99372.56;4349643;32;34433;-78
2022/06/21 06:31:30;;;;;;;2.28;0.70;;;;;;;18.34;50.02;99357.22;4348247;32;34953;-78
2022/06/21 06:34:28;;;;;;;3.15;0.65;;;;;;;18.62;49.76;99369.97;4355145;32;34760;-78
2022/06/21 06:37:25;;;;;;;3.45;1.00;;;;;;;18.28;47.94;99372.56;4348883;32;34129;-78
2022/06/21 06:40:18;;;;;;;2.60;1.08;;;;;;;18.40;47.87;99363.25;4368467;32;34618;-81
2022/06/21 06:43:19;;;;;;;3.22;0.80;;;;;;;18.50;47.79;99378.47;4360453;32;35001;-78
2022/06/21 06:46:06;;;;;;;1.98;0.85;;;;;;;18.60;47.89;99375.09;4360268;32;34485;-79
2022/06/21 06:49:15;;;;;;;1.58;0.70;;;;;;;18.70;47.37;99374.47;4358795;32;35187;-79
2022/06/21 06:52:15;;;;;;;2.95;0.98;;;;;;;18.75;47.00;99367.81;4365863;32;34497;-78
2022/06/21 06:55:06;;;;;;;3.70;0.82;;;;;;;18.82;47.49;99379.84;4358917;32;35972;-77
2022/06/21 06:57:54;;;;;;;;;;;;;;;18.72;46.84;99379.62;4369308;32;34610;-79
2022/06/21 07:00:51;;;;;;;2.37;0.95;;;;;;;18.72;46.86;99374.88;4362781;32;33618;-78
2022/06/21 07:03:51;;;;;;;2.20;0.80;;;;;;;18.61;47.56;99385.81;4362088;32;35329;-79
2022/06/21 07:06:47;;;;;;;5.62;0.95;;;;;;;18.88;49.12;99388.66;4359510;32;34983;-79
2022/06/21 07:09:40;;;;;;;4.15;1.00;;;;;;;19.08;48.82;99376.25;4360333;32;36079;-78
2022/06/21 07:12:28;;;;;;;4.65;0.80;;;;;;;19.38;45.63;99386.59;4363330;32;34841;-78
2022/06/21 07:15:16;;;;;;;2.50;0.82;;;;;;;19.17;46.99;99375.97;4366104;32;35505;-79
2022/06/21 07:18:03;;;;;;;2.35;0.93;;;;;;;18.68;46.37;99385.13;4362769;32;36033;-78
2022/06/21 07:20:49;;;;;;;4.00;1.00;;;;;;;18.98;47.19;99392.75;4368504;32;35679;-79
2022/06/21 07:23:36;;;;;;;3.97;1.02;;;;;;;19.44;44.59;99398.16;4370801;32;34172;-79
2022/06/21 07:26:40;;;;;;;2.08;0.75;;;;;;;19.07;45.17;99412.75;4365394;32;34825;-80
2022/06/21 07:29:34;;;;;;;4.60;0.90;;;;;;;19.07;42.71;99407.19;4361313;32;36524;-80
2022/06/21 07:32:25;;;;;;;4.70;0.93;;;;;;;19.63;41.79;99416.69;4363964;32;35183;-79
2022/06/21 07:35:13;;;;;;;;;;;;;;;19.50;39.24;99407.78;4373320;32;33070;-78
2022/06/21 07:38:07;;;;;;;3.50;0.80;;;;;;;19.22;40.50;99420.09;4363347;32;35105;-78
2022/06/21 07:40:58;;;;;;;1.58;0.80;;;;;;;19.47;40.27;99420.47;4363294;32;35999;-79
2022/06/21 07:43:47;;;;;;;3.22;0.73;;;;;;;19.60;41.02;99417.44;4368809;32;35819;-79
2022/06/21 07:46:39;;;;;;;3.55;0.93;;;;;;;19.80;42.03;99423.69;4371285;32;33347;-79
2022/06/21 07:49:29;;;;;;;2.47;1.02;;;;;;;20.25;41.72;99419.03;4359479;32;34676;-79
2022/06/21 07:52:39;;;;;;;2.83;1.12;;;;;;;20.26;40.97;99412.28;4359019;32;33833;-79
2022/06/21 07:55:28;;;;;;;4.90;0.88;;;;;;;19.90;39.69;99453.59;4360692;32;34735;-84
2022/06/21 07:58:23;;;;;;;3.58;1.20;;;;;;;19.84;38.59;99394.75;4368922;32;34377;-78
2022/06/21 08:07:36;;;;;;;1.65;0.93;;;;;;;20.58;39.29;99419.00;4366281;32;34744;-78
2022/06/21 08:10:40;;;;;;;3.62;1.05;;;;;;;20.90;39.16;99415.69;4360065;32;34033;-82
2022/06/21 08:13:28;;;;;;;2.83;0.88;;;;;;;20.85;38.99;99433.53;4369416;32;34747;-78
2022/06/21 08:16:17;;;;;;;2.92;0.90;;;;;;;20.47;39.13;99414.50;4359438;32;35973;-78
2022/06/21 08:19:26;;;;;;;4.50;0.70;;;;;;;20.77;38.32;99401.25;4364546;32;34638;-79
2022/06/21 08:22:17;;;;;;;5.30;1.10;;;;;;;20.76;37.96;99423.91;4361003;32;34139;-79
2022/06/21 08:25:13;;;;;;;2.08;0.90;;;;;;;20.55;38.04;99433.69;4361082;32;34598;-79
2022/06/21 08:28:09;;;;;;;1.60;0.90;;;;;;;20.71;38.44;99415.91;4362392;32;34629;-79
2022/06/21 08:31:02;;;;;;;6.50;0.70;;;;;;;21.16;35.38;99427.81;4361658;32;35239;-79
2022/06/21 08:34:00;;;;;;;2.90;0.80;;;;;;;20.93;34.99;99428.03;4362556;32;34208;-78
2022/06/21 08:36:55;;;;;;;3.30;1.20;;;;;;;20.97;35.26;99426.84;4368910;32;35574;-78
2022/06/21 08:40:12;;;;;;;4.62;1.00;;;;;;;21.06;36.24;99432.94;4360612;32;35193;-79
2022/06/21 08:43:07;;;;;;;3.85;0.90;;;;;;;20.74;36.69;99438.22;4362882;32;35735;-80
2022/06/21 08:46:21;;;;;;;3.95;1.10;;;;;;;20.74;37.93;99431.84;4366306;32;35351;-78
2022/06/21 08:49:13;;;;;;;3.85;0.93;;;;;;;21.05;36.52;99422.94;4368480;32;33663;-79
2022/06/21 08:52:20;;;;;;;8.30;1.40;;;;;;;21.47;34.10;99435.59;4364424;32;34618;-78
2022/06/21 08:55:11;;;;;;;7.00;1.20;;;;;;;21.16;33.14;99433.38;4368352;32;34807;-79
2022/06/21 08:58:23;;;;;;;4.75;0.82;;;;;;;21.41;33.99;99434.38;4363086;32;33759;-78
2022/06/21 09:01:22;;;;;;;4.47;1.52;;;;;;;21.43;33.51;99433.97;4362181;32;34721;-79
2022/06/21 09:04:12;;;;;;;6.07;1.40;;;;;;;21.69;34.76;99432.94;4361898;32;35625;-79
2022/06/21 09:07:05;;;;;;;2.62;0.98;;;;;;;22.08;33.68;99416.31;4368725;32;34579;-78
2022/06/21 09:10:04;;;;;;;3.70;1.00;;;;;;;21.77;33.31;99424.22;4363054;32;34182;-80
2022/06/21 09:13:28;;;;;;;6.95;1.15;;;;;;;21.70;34.59;99423.38;4365901;32;34655;-80
2022/06/21 09:16:23;;;;;;;3.25;0.93;;;;;;;21.58;34.92;99451.59;4367024;32;35009;-79
2022/06/21 09:19:47;;;;;;;2.65;0.75;;;;;;;21.90;35.00;99432.22;4360219;32;34493;-79
2022/06/21 09:22:56;;;;;;;6.35;1.00;;;;;;;21.60;33.27;99429.69;4364914;32;35074;-79
2022/06/21 09:26:01;;;;;;;2.75;0.82;;;;;;;21.74;32.60;99446.47;4362226;32;35520;-80
2022/06/21 09:28:57;;;;;;;3.60;0.95;;;;;;;21.79;32.59;99429.37;4362507;32;35116;-79
2022/06/21 09:31:59;;;;;;;4.87;0.70;;;;;;;21.71;33.76;99450.84;4363544;32;34768;-79
2022/06/21 09:34:52;;;;;;;6.22;1.00;;;;;;;22.12;34.63;99447.06;4368798;32;33147;-78
2022/06/21 09:37:57;;;;;;;4.62;0.90;;;;;;;22.44;33.84;99436.78;4366080;32;34917;-79
2022/06/21 09:41:24;;;;;;;4.30;0.90;;;;;;;22.17;34.09;99441.91;4372758;32;35944;-77
2022/06/21 09:44:32;;;;;;;3.35;0.93;;;;;;;22.45;33.72;99437.56;4360092;32;35826;-78
2022/06/21 09:47:52;;;;;;;4.55;1.00;;;;;;;22.39;32.98;99442.75;4370641;32;34457;-79
2022/06/21 09:51:18;;;;;;;1.67;0.80;;;;;;;22.75;31.39;99437.22;4370314;32;35655;-79
2022/06/21 09:54:23;;;;;;;4.40;0.80;;;;;;;22.26;32.84;99444.34;4368910;32;35195;-79
2022/06/21 09:57:29;;;;;;;3.25;1.02;;;;;;;22.56;32.63;99430.00;4369922;32;35480;-79
2022/06/21 10:00:23;;;;;;;2.58;0.70;;;;;;;22.21;33.43;99439.94;4352465;32;33989;-78
2022/06/21 10:03:48;;;;;;;2.83;1.00;;;;;;;22.51;32.30;99449.16;4351606;32;35681;-79
2022/06/21 10:07:14;;;;;;;3.42;0.70;;;;;;;22.54;32.20;99448.34;4360389;32;34902;-79
2022/06/21 10:10:28;;;;;;;2.92;0.80;;;;;;;22.26;32.04;99444.34;4368300;32;34825;-79
2022/06/21 10:13:20;;;;;;;2.42;0.85;;;;;;;22.54;31.07;99437.19;4369710;32;34298;-79
2022/06/21 10:16:44;;;;;;;2.22;0.82;;;;;;;22.65;31.26;99432.41;4373173;32;34775;-79
2022/06/21 10:19:58;;;;;;;3.08;1.00;;;;;;;23.08;30.99;99438.03;4364375;32;34984;-79
2022/06/21 10:23:09;;;;;;;3.65;0.90;;;;;;;22.60;32.83;99444.00;4367126;32;35460;-78
2022/06/21 10:26:08;;;;;;;3.03;1.00;;;;;;;23.08;32.82;99444.44;4368380;32;35088;-77
2022/06/21 10:29:16;;;;;;;5.00;0.95;;;;;;;22.79;33.04;99438.00;4362276;32;35724;-80
2022/06/21 10:32:21;;;;;;;4.15;0.82;;;;;;;23.24;31.75;99446.81;4369058;32;35201;-77
2022/06/21 10:35:29;;;;;;;4.40;1.00;;;;;;;23.42;31.59;99441.19;4368548;32;34606;-78
2022/06/21 10:38:41;;;;;;;2.08;0.75;;;;;;;22.93;33.69;99447.59;4362971;32;33666;-79
2022/06/21 10:45:16;;;;;;;4.65;0.80;;;;;;;23.50;31.14;99425.19;4366784;32;36060;-79
2022/06/21 10:48:24;;;;;;;7.25;1.02;;;;;;;23.71;30.79;99435.56;4368561;32;34775;-78
2022/06/21 10:51:35;;;;;;;3.45;0.90;;;;;;;23.60;30.30;99434.78;4365433;32;35214;-77
2022/06/21 10:54:45;;;;;;;4.78;1.10;;;;;;;24.28;29.23;99428.87;4369503;32;35478;-77
2022/06/21 10:58:00;;;;;;;3.83;0.80;;;;;;;24.38;29.61;99444.81;4361261;32;34928;-78
2022/06/21 11:04:47;;;;;;;1.92;0.70;;;;;;;24.00;29.24;99441.84;4365775;32;35049;-78
2022/06/21 11:07:43;;;;;;;4.15;0.90;;;;;;;24.11;30.07;99436.97;4309399;33;34725;-76
2022/06/21 11:10:35;;;;;;;3.62;0.80;;;;;;;24.00;27.75;99453.03;4374635;32;35165;-77
2022/06/21 11:13:22;;;;;;;2.35;0.80;;;;;;;24.21;30.94;99447.31;4364748;32;34755;-78
2022/06/21 11:16:27;;;;;;;6.95;1.40;;;;;;;24.48;29.67;99440.38;4366412;32;35111;-76
2022/06/21 11:20:07;;;;;;;3.58;0.90;;;;;;;24.66;29.51;99433.47;4368911;32;34674;-79
2022/06/21 11:23:12;;;;;;;6.10;1.00;;;;;;;24.69;30.61;99443.06;4322519;32;34819;-78
2022/06/21 11:26:21;;;;;;;4.32;0.90;;;;;;;24.91;28.61;99444.47;4370105;32;35737;-78
2022/06/21 11:29:37;;;;;;;2.97;1.10;;;;;;;25.34;29.43;99448.94;4363665;32;34216;-79
2022/06/21 11:32:58;;;;;;;2.65;1.20;;;;;;;24.04;29.88;99458.59;4368217;32;34682;-77
2022/06/21 11:36:12;;;;;;;3.53;0.82;;;;;;;23.59;30.69;99453.53;4366182;32;35381;-78
2022/06/21 11:39:25;;;;;;;3.70;1.05;;;;;;;24.02;28.65;99451.41;4365804;32;33611;-78
2022/06/21 11:42:12;;;;;;;8.13;1.05;;;;;;;24.36;27.05;99452.81;4369343;32;34181;-80
2022/06/21 11:45:14;;;;;;;3.40;0.80;;;;;;;24.16;26.71;99463.72;4364281;32;35626;-78
2022/06/21 11:48:53;;;;;;;2.53;0.77;;;;;;;23.69;27.00;99457.50;4364993;32;34969;-79
2022/06/21 11:52:07;;;;;;;3.12;0.90;;;;;;;24.50;29.27;99455.56;4292231;32;35746;-78
2022/06/21 11:55:02;;;;;;;2.72;1.20;;;;;;;24.29;29.06;99459.28;4369173;32;34401;-78
2022/06/21 11:57:55;;;;;;;5.40;0.98;;;;;;;24.08;29.53;99454.59;4363226;32;35686;-78
2022/06/21 12:00:47;;;;;;;4.72;0.90;;;;;;;24.67;26.47;99456.66;4370920;32;35977;-79
2022/06/21 12:03:37;;;;;;;1.67;0.75;;;;;;;24.87;28.01;99463.34;4364628;32;35775;-78
2022/06/21 12:06:38;;;;;;;3.12;0.60;;;;;;;24.85;26.20;99448.16;4362861;32;34097;-78
2022/06/21 12:09:47;;;;;;;5.43;0.80;;;;;;;25.08;24.91;99444.75;4365220;32;34705;-80
2022/06/21 12:12:44;;;;;;;3.28;1.23;;;;;;;24.66;25.88;99455.06;4366730;32;35891;-79
2022/06/21 12:15:58;;;;;;;4.95;1.17;;;;;;;24.46;27.12;99446.41;4371235;32;35345;-78
2022/06/21 12:18:59;;;;;;;2.20;0.90;;;;;;;24.05;27.24;99466.59;4369939;32;34123;-79
2022/06/21 12:21:55;;;;;;;1.83;1.00;;;;;;;24.66;27.66;99430.66;4361911;32;34277;-78
2022/06/21 12:24:41;;;;;;;3.85;1.10;;;;;;;24.51;28.15;99428.38;4349998;32;35041;-79
2022/06/21 12:27:27;;;;;;;3.65;1.20;;;;;;;24.51;28.32;99434.78;4373087;32;34823;-77
2022/06/21 12:30:18;;;;;;;2.47;0.90;;;;;;;24.69;27.55;99427.03;4365777;32;34141;-78
2022/06/21 12:33:06;;;;;;;5.65;1.23;;;;;;;24.91;27.62;99421.28;4361921;32;34001;-79
2022/06/21 12:35:55;;;;;;;2.45;1.05;;;;;;;24.45;28.27;99416.81;4365610;32;34868;-77
2022/06/21 12:38:49;;;;;;;3.28;0.95;;;;;;;24.04;29.10;99434.22;4370018;32;35528;-78
2022/06/21 12:41:40;;;;;;;5.93;1.05;;;;;;;25.07;28.27;99415.09;4356990;32;35144;-78
2022/06/21 12:44:29;;;;;;;1.58;1.02;;;;;;;24.12;28.69;99410.59;4353944;32;34884;-77
2022/06/21 12:47:21;;;;;;;9.18;1.12;;;;;;;24.77;27.61;99422.19;4360436;32;34875;-78
2022/06/21 12:50:26;;;;;;;3.37;1.02;;;;;;;25.35;28.20;99414.84;4352830;32;35673;-77
2022/06/21 12:53:50;;;;;;;3.37;1.00;;;;;;;25.49;27.44;99411.09;4353588;32;34828;-77
2022/06/21 12:57:03;;;;;;;3.35;1.10;;;;;;;25.27;27.26;99399.34;4354367;32;35550;-78
2022/06/21 13:00:05;;;;;;;3.97;0.95;;;;;;;25.17;27.98;99407.84;4341072;32;35207;-78
2022/06/21 13:03:26;;;;;;;5.20;0.80;;;;;;;24.99;27.31;99400.38;4354347;32;35641;-80
2022/06/21 13:06:39;;;;;;;4.75;0.80;;;;;;;24.20;27.10;99405.75;4354367;32;35263;-77
2022/06/21 13:09:34;;;;;;;5.30;1.08;;;;;;;23.94;27.58;99409.88;4340816;32;34814;-80
2022/06/21 13:12:53;;;;;;;2.28;1.00;;;;;;;24.28;27.88;99407.31;4354884;32;35035;-76
2022/06/21 13:16:01;;;;;;;9.65;1.00;;;;;;;24.08;28.21;99409.81;4344080;32;34672;-78
2022/06/21 13:19:25;;;;;;;3.35;1.02;;;;;;;24.16;29.36;99402.16;4356187;32;34394;-78
2022/06/21 13:22:44;;;;;;;7.03;1.00;;;;;;;24.85;28.52;99403.31;4354895;32;34749;-79
2022/06/21 13:25:57;;;;;;;3.28;0.70;;;;;;;24.55;28.20;99399.13;4351926;32;34968;-77
2022/06/21 13:28:59;;;;;;;4.72;0.90;;;;;;;25.13;27.31;99399.41;4352158;32;35612;-78
2022/06/21 13:31:53;;;;;;;2.55;0.93;;;;;;;24.83;28.16;99402.91;4352433;32;34221;-79
2022/06/21 13:34:47;;;;;;;4.78;1.00;;;;;;;25.19;27.21;99408.22;4353137;32;98609;-78
2022/06/21 13:37:43;;;;;;;1.40;0.75;;;;;;;25.23;28.47;99409.00;4354798;32;35054;-78
2022/06/21 13:40:42;;;;;;;5.32;1.73;;;;;;;25.22;27.86;99413.00;4357097;32;34882;-77
2022/06/21 13:43:42;;;;;;;5.25;1.17;;;;;;;25.64;27.75;99411.72;4360467;32;34185;-80
2022/06/21 13:46:35;;;;;;;5.62;1.17;;;;;;;24.34;29.13;99404.88;4358877;32;34651;-78
2022/06/21 13:49:30;;;;;;;2.72;1.00;;;;;;;24.81;28.86;99416.53;4360352;32;35012;-78
2022/06/21 13:52:29;;;;;;;2.20;0.90;;;;;;;24.42;29.46;99407.22;4361019;32;35711;-79
2022/06/21 13:55:48;;;;;;;2.40;1.05;;;;;;;24.86;28.59;99408.47;4361885;32;33958;-78
2022/06/21 13:58:39;;;;;;;3.35;1.00;;;;;;;24.92;29.45;99401.22;4360834;32;35630;-78
2022/06/21 14:01:44;;;;;;;3.80;1.10;;;;;;;25.51;29.60;99396.66;4350795;32;35116;-78
2022/06/21 14:05:05;;;;;;;2.65;1.10;;;;;;;25.44;29.41;99389.13;4358845;32;34702;-80
2022/06/21 14:07:59;;;;;;;3.45;1.33;;;;;;;25.04;30.14;99391.50;4360355;32;34192;-77
2022/06/21 14:10:53;;;;;;;1.90;0.85;;;;;;;25.22;29.51;99384.97;4360584;32;34711;-79
2022/06/21 14:13:50;;;;;;;2.45;1.23;;;;;;;25.05;29.57;99376.28;4361587;32;36042;-79
2022/06/21 14:16:52;;;;;;;2.60;1.08;;;;;;;25.57;29.11;99376.16;4359848;32;35567;-78